sensor_id;sensor_type;location;lat;lon;timestamp;pressure;altitude;pressure_sealevel;temperature;humidity
44079;BME280;29744;49.078;12.878;2023-09-30T00:01:22;97060.09;;;17.89;44.19
44079;BME280;29744;49.078;12.878;2023-09-30T00:06:22;97059.31;;;17.88;44.40
44079;BME280;29744;49.078;12.878;2023-09-30T00:11:23;97062.03;;;17.88;44.69
44079;BME280;29744;49.078;12.878;2023-09-30T00:16:23;97068.25;;;17.89;44.33
44079;BME280;29744;49.078;12.878;2023-09-30T00:21:24;97070.94;;;17.89;44.29
44079;BME280;29744;49.078;12.878;2023-09-30T00:26:24;97064.72;;;17.88;44.29
44079;BME280;29744;49.078;12.878;2023-09-30T00:31:25;97059.31;;;17.88;44.36
44079;BME280;29744;49.078;12.878;2023-09-30T00:36:25;97068.56;;;17.87;44.34
44079;BME280;29744;49.078;12.878;2023-09-30T00:41:26;97076.38;;;17.89;44.55
44079;BME280;29744;49.078;12.878;2023-09-30T00:46:30;97071.75;;;17.89;44.31
44079;BME280;29744;49.078;12.878;2023-09-30T00:51:31;97072.88;;;17.88;44.20
44079;BME280;29744;49.078;12.878;2023-09-30T00:56:33;97087.56;;;17.87;43.99
44079;BME280;29744;49.078;12.878;2023-09-30T01:01:34;97090.75;;;17.89;44.46
44079;BME280;29744;49.078;12.878;2023-09-30T01:06:34;97087.56;;;17.87;44.13
44079;BME280;29744;49.078;12.878;2023-09-30T01:11:35;97089.94;;;17.89;44.29
44079;BME280;29744;49.078;12.878;2023-09-30T01:16:35;97087.22;;;17.89;44.29
44079;BME280;29744;49.078;12.878;2023-09-30T01:21:35;97081.81;;;17.89;44.39
44079;BME280;29744;49.078;12.878;2023-09-30T01:26:36;97084.06;;;17.87;44.45
44079;BME280;29744;49.078;12.878;2023-09-30T01:31:39;97090.28;;;17.87;44.25
44079;BME280;29744;49.078;12.878;2023-09-30T01:36:40;97094.56;;;17.88;44.30
44079;BME280;29744;49.078;12.878;2023-09-30T01:41:40;97091.88;;;17.88;44.25
44079;BME280;29744;49.078;12.878;2023-09-30T01:46:41;97071.28;;;17.87;44.56
44079;BME280;29744;49.078;12.878;2023-09-30T01:51:41;97073.66;;;17.89;44.36
44079;BME280;29744;49.078;12.878;2023-09-30T01:56:42;97087.22;;;17.89;44.37
44079;BME280;29744;49.078;12.878;2023-09-30T02:01:42;97086.44;;;17.88;44.12
44079;BME280;29744;49.078;12.878;2023-09-30T02:06:42;97081.00;;;17.88;44.20
44079;BME280;29744;49.078;12.878;2023-09-30T02:11:43;97090.75;;;17.89;43.90
44079;BME280;29744;49.078;12.878;2023-09-30T02:16:43;97089.94;;;17.89;43.99
44079;BME280;29744;49.078;12.878;2023-09-30T02:21:43;97093.44;;;17.89;44.04
44079;BME280;29744;49.078;12.878;2023-09-30T02:26:44;97100.81;;;17.89;44.38
44079;BME280;29744;49.078;12.878;2023-09-30T02:31:44;97100.81;;;17.89;44.58
44079;BME280;29744;49.078;12.878;2023-09-30T02:36:45;97108.94;;;17.89;44.38
44079;BME280;29744;49.078;12.878;2023-09-30T02:41:45;97102.72;;;17.88;44.31
44079;BME280;29744;49.078;12.878;2023-09-30T02:46:46;97098.88;;;17.89;43.94
44079;BME280;29744;49.078;12.878;2023-09-30T02:51:47;97095.38;;;17.89;43.99
44079;BME280;29744;49.078;12.878;2023-09-30T02:56:47;97100.81;;;17.89;43.86
44079;BME280;29744;49.078;12.878;2023-09-30T03:01:48;97107.03;;;17.89;44.19
44079;BME280;29744;49.078;12.878;2023-09-30T03:06:49;97109.72;;;17.89;44.24
44079;BME280;29744;49.078;12.878;2023-09-30T03:11:49;97109.72;;;17.89;44.06
44079;BME280;29744;49.078;12.878;2023-09-30T03:16:50;97106.22;;;17.89;44.43
44079;BME280;29744;49.078;12.878;2023-09-30T03:21:50;97099.69;;;17.90;43.89
44079;BME280;29744;49.078;12.878;2023-09-30T03:26:50;97109.72;;;17.89;44.29
44079;BME280;29744;49.078;12.878;2023-09-30T03:31:51;97108.94;;;17.89;44.49
44079;BME280;29744;49.078;12.878;2023-09-30T03:36:52;97117.88;;;17.89;44.45
44079;BME280;29744;49.078;12.878;2023-09-30T03:41:55;97115.16;;;17.89;44.63
44079;BME280;29744;49.078;12.878;2023-09-30T03:46:59;97114.38;;;17.89;44.45
44079;BME280;29744;49.078;12.878;2023-09-30T03:52:00;97131.44;;;17.89;44.24
44079;BME280;29744;49.078;12.878;2023-09-30T03:57:01;97136.06;;;17.89;44.30
44079;BME280;29744;49.078;12.878;2023-09-30T04:02:03;97150.44;;;17.89;44.10
44079;BME280;29744;49.078;12.878;2023-09-30T04:07:03;97141.50;;;17.89;44.26
44079;BME280;29744;49.078;12.878;2023-09-30T04:12:07;97136.06;;;17.89;43.96
44079;BME280;29744;49.078;12.878;2023-09-30T04:17:07;97133.34;;;17.89;44.38
44079;BME280;29744;49.078;12.878;2023-09-30T04:22:09;97136.88;;;17.89;44.35
44079;BME280;29744;49.078;12.878;2023-09-30T04:27:09;97146.94;;;17.89;44.16
44079;BME280;29744;49.078;12.878;2023-09-30T04:32:09;97146.13;;;17.88;44.50
44079;BME280;29744;49.078;12.878;2023-09-30T04:37:10;97143.41;;;17.88;44.44
44079;BME280;29744;49.078;12.878;2023-09-30T04:42:10;97138.00;;;17.88;44.59
44079;BME280;29744;49.078;12.878;2023-09-30T04:47:11;97155.88;;;17.89;44.33
44079;BME280;29744;49.078;12.878;2023-09-30T04:52:11;97150.44;;;17.89;43.97
44079;BME280;29744;49.078;12.878;2023-09-30T04:57:12;97171.34;;;17.89;44.18
44079;BME280;29744;49.078;12.878;2023-09-30T05:02:12;97177.56;;;17.89;44.16
44079;BME280;29744;49.078;12.878;2023-09-30T05:07:15;97174.84;;;17.89;44.29
44079;BME280;29744;49.078;12.878;2023-09-30T05:12:16;97175.97;;;17.88;44.58
44079;BME280;29744;49.078;12.878;2023-09-30T05:17:16;97181.06;;;17.90;44.29
44079;BME280;29744;49.078;12.878;2023-09-30T05:22:16;97184.91;;;17.89;44.37
44079;BME280;29744;49.078;12.878;2023-09-30T05:27:22;97180.28;;;17.89;44.62
44079;BME280;29744;49.078;12.878;2023-09-30T05:32:22;97181.41;;;17.88;44.13
44079;BME280;29744;49.078;12.878;2023-09-30T05:37:24;97174.84;;;17.89;44.31
44079;BME280;29744;49.078;12.878;2023-09-30T05:42:25;97180.28;;;17.89;44.00
44079;BME280;29744;49.078;12.878;2023-09-30T05:47:25;97175.97;;;17.88;44.51
44079;BME280;29744;49.078;12.878;2023-09-30T05:52:26;97170.22;;;17.90;44.32
44079;BME280;29744;49.078;12.878;2023-09-30T05:57:27;97175.66;;;17.90;44.30
44079;BME280;29744;49.078;12.878;2023-09-30T06:02:27;97187.31;;;17.90;44.11
44079;BME280;29744;49.078;12.878;2023-09-30T06:07:28;97188.41;;;17.89;44.15
44079;BME280;29744;49.078;12.878;2023-09-30T06:12:28;97186.50;;;17.90;44.10
44079;BME280;29744;49.078;12.878;2023-09-30T06:17:29;97179.50;;;17.89;44.52
44079;BME280;29744;49.078;12.878;2023-09-30T06:22:29;97190.00;;;17.90;44.24
44079;BME280;29744;49.078;12.878;2023-09-30T06:27:29;97185.72;;;17.89;44.29
44079;BME280;29744;49.078;12.878;2023-09-30T06:32:29;97195.44;;;17.90;44.29
44079;BME280;29744;49.078;12.878;2023-09-30T06:37:30;97213.63;;;17.90;44.12
44079;BME280;29744;49.078;12.878;2023-09-30T06:42:30;97220.66;;;17.91;44.50
44079;BME280;29744;49.078;12.878;2023-09-30T06:47:35;97222.56;;;17.90;44.47
44079;BME280;29744;49.078;12.878;2023-09-30T06:52:38;97218.75;;;17.91;44.58
44079;BME280;29744;49.078;12.878;2023-09-30T06:57:38;97229.59;;;17.91;44.29
44079;BME280;29744;49.078;12.878;2023-09-30T07:02:41;97233.91;;;17.92;43.97
44079;BME280;29744;49.078;12.878;2023-09-30T07:07:41;97240.44;;;17.91;44.27
44079;BME280;29744;49.078;12.878;2023-09-30T07:12:45;97243.16;;;17.91;44.28
44079;BME280;29744;49.078;12.878;2023-09-30T07:17:45;97242.38;;;17.91;44.40
44079;BME280;29744;49.078;12.878;2023-09-30T07:22:47;97252.91;;;17.92;44.00
44079;BME280;29744;49.078;12.878;2023-09-30T07:27:48;97254.81;;;17.92;44.41
44079;BME280;29744;49.078;12.878;2023-09-30T07:32:48;97265.66;;;17.92;44.41
44079;BME280;29744;49.078;12.878;2023-09-30T07:37:48;97278.13;;;17.93;44.35
44079;BME280;29744;49.078;12.878;2023-09-30T07:42:52;97278.91;;;17.93;44.23
44079;BME280;29744;49.078;12.878;2023-09-30T07:47:52;97281.63;;;17.93;44.13
44079;BME280;29744;49.078;12.878;2023-09-30T07:52:52;97278.91;;;17.93;44.13
44079;BME280;29744;49.078;12.878;2023-09-30T07:57:53;97274.28;;;17.94;44.15
44079;BME280;29744;49.078;12.878;2023-09-30T08:02:53;97283.22;;;17.94;44.21
44079;BME280;29744;49.078;12.878;2023-09-30T08:07:53;97276.66;;;17.95;44.29
44079;BME280;29744;49.078;12.878;2023-09-30T08:12:54;97267.72;;;17.95;44.43
44079;BME280;29744;49.078;12.878;2023-09-30T08:17:57;97266.59;;;17.96;44.66
44079;BME280;29744;49.078;12.878;2023-09-30T08:22:57;97266.59;;;17.96;44.33
44079;BME280;29744;49.078;12.878;2023-09-30T08:27:58;97280.97;;;17.96;44.67
44079;BME280;29744;49.078;12.878;2023-09-30T08:32:59;97285.31;;;17.97;44.24
44079;BME280;29744;49.078;12.878;2023-09-30T08:37:59;97288.03;;;17.97;44.27
44079;BME280;29744;49.078;12.878;2023-09-30T08:42:59;97277.97;;;17.98;44.38
44079;BME280;29744;49.078;12.878;2023-09-30T08:48:01;97285.00;;;17.99;44.32
44079;BME280;29744;49.078;12.878;2023-09-30T08:53:05;97283.06;;;17.99;44.34
44079;BME280;29744;49.078;12.878;2023-09-30T08:58:06;97289.28;;;18.00;44.14
44079;BME280;29744;49.078;12.878;2023-09-30T09:03:07;97305.56;;;18.00;44.42
44079;BME280;29744;49.078;12.878;2023-09-30T09:08:08;97309.88;;;18.01;44.37
44079;BME280;29744;49.078;12.878;2023-09-30T09:13:09;97317.22;;;18.00;44.07
44079;BME280;29744;49.078;12.878;2023-09-30T09:18:10;97325.03;;;18.02;44.38
44079;BME280;29744;49.078;12.878;2023-09-30T09:23:14;97319.63;;;18.02;44.23
44079;BME280;29744;49.078;12.878;2023-09-30T09:28:15;97317.69;;;18.03;44.45
44079;BME280;29744;49.078;12.878;2023-09-30T09:33:15;97315.00;;;18.03;44.23
44079;BME280;29744;49.078;12.878;2023-09-30T09:38:15;97311.47;;;18.02;44.41
44079;BME280;29744;49.078;12.878;2023-09-30T09:43:16;97305.72;;;18.04;44.09
44079;BME280;29744;49.078;12.878;2023-09-30T09:48:16;97322.81;;;18.04;44.57
44079;BME280;29744;49.078;12.878;2023-09-30T09:53:18;97313.53;;;18.05;44.49
44079;BME280;29744;49.078;12.878;2023-09-30T09:58:20;97304.59;;;18.05;44.33
44079;BME280;29744;49.078;12.878;2023-09-30T10:03:21;97291.81;;;18.05;44.37
44079;BME280;29744;49.078;12.878;2023-09-30T10:08:30;97289.13;;;18.05;44.67
44079;BME280;29744;49.078;12.878;2023-09-30T10:13:54;97299.50;;;18.03;44.31
44079;BME280;29744;49.078;12.878;2023-09-30T10:19:11;97304.59;;;18.05;44.33
44079;BME280;29744;49.078;12.878;2023-09-30T10:24:40;97306.06;;;18.02;44.16
44079;BME280;29744;49.078;12.878;2023-09-30T10:29:41;97308.91;;;18.06;44.32
44079;BME280;29744;49.078;12.878;2023-09-30T10:34:49;97305.06;;;18.07;44.45
44079;BME280;29744;49.078;12.878;2023-09-30T10:39:58;97309.69;;;18.06;44.16
44079;BME280;29744;49.078;12.878;2023-09-30T10:44:59;97312.09;;;18.08;44.43
44079;BME280;29744;49.078;12.878;2023-09-30T10:50:02;97309.06;;;18.09;44.32
44079;BME280;29744;49.078;12.878;2023-09-30T10:55:04;97311.78;;;18.09;44.45
44079;BME280;29744;49.078;12.878;2023-09-30T11:00:11;97303.63;;;18.09;44.17
44079;BME280;29744;49.078;12.878;2023-09-30T11:05:12;97309.06;;;18.09;44.78
44079;BME280;29744;49.078;12.878;2023-09-30T11:10:17;97300.91;;;18.09;44.19
44079;BME280;29744;49.078;12.878;2023-09-30T11:15:18;97309.06;;;18.09;44.40
44079;BME280;29744;49.078;12.878;2023-09-30T11:20:19;97309.84;;;18.10;44.04
44079;BME280;29744;49.078;12.878;2023-09-30T11:25:19;97314.47;;;18.09;44.28
44079;BME280;29744;49.078;12.878;2023-09-30T11:30:19;97309.06;;;18.09;44.34
44079;BME280;29744;49.078;12.878;2023-09-30T11:35:23;97318.31;;;18.08;44.47
44079;BME280;29744;49.078;12.878;2023-09-30T11:40:24;97311.78;;;18.09;44.40
44079;BME280;29744;49.078;12.878;2023-09-30T11:45:24;97314.81;;;18.08;44.25
44079;BME280;29744;49.078;12.878;2023-09-30T11:50:25;97320.25;;;18.08;44.45
44079;BME280;29744;49.078;12.878;2023-09-30T11:55:25;97309.38;;;18.08;44.54
44079;BME280;29744;49.078;12.878;2023-09-30T12:00:27;97319.13;;;18.09;44.55
44079;BME280;29744;49.078;12.878;2023-09-30T12:05:27;97320.25;;;18.08;44.85
44079;BME280;29744;49.078;12.878;2023-09-30T12:10:29;97316.72;;;18.07;44.51
44079;BME280;29744;49.078;12.878;2023-09-30T12:15:31;97317.53;;;18.08;44.60
44079;BME280;29744;49.078;12.878;2023-09-30T12:20:31;97319.44;;;18.07;44.72
44079;BME280;29744;49.078;12.878;2023-09-30T12:25:31;97328.38;;;18.08;44.42
44079;BME280;29744;49.078;12.878;2023-09-30T12:30:33;97329.19;;;18.08;44.37
44079;BME280;29744;49.078;12.878;2023-09-30T12:35:34;97322.94;;;18.08;44.61
44079;BME280;29744;49.078;12.878;2023-09-30T12:40:34;97314.81;;;18.08;44.79
44079;BME280;29744;49.078;12.878;2023-09-30T12:45:34;97305.53;;;18.09;44.57
44079;BME280;29744;49.078;12.878;2023-09-30T12:50:35;97308.59;;;18.07;44.43
44079;BME280;29744;49.078;12.878;2023-09-30T12:55:35;97321.84;;;18.09;44.68
44079;BME280;29744;49.078;12.878;2023-09-30T13:00:36;97340.84;;;18.09;44.50
44079;BME280;29744;49.078;12.878;2023-09-30T13:05:36;97337.00;;;18.10;44.60
44079;BME280;29744;49.078;12.878;2023-09-30T13:10:37;97301.72;;;18.10;44.49
44079;BME280;29744;49.078;12.878;2023-09-30T13:15:38;97306.34;;;18.09;44.25
44079;BME280;29744;49.078;12.878;2023-09-30T13:20:38;97304.41;;;18.10;44.31
44079;BME280;29744;49.078;12.878;2023-09-30T13:25:39;97321.50;;;18.10;44.45
44079;BME280;29744;49.078;12.878;2023-09-30T13:30:39;97310.66;;;18.10;44.49
44079;BME280;29744;49.078;12.878;2023-09-30T13:35:40;97306.00;;;18.11;44.86
44079;BME280;29744;49.078;12.878;2023-09-30T13:40:41;97301.38;;;18.11;44.66
44079;BME280;29744;49.078;12.878;2023-09-30T13:45:41;97311.44;;;18.11;44.45
44079;BME280;29744;49.078;12.878;2023-09-30T13:50:41;97313.34;;;18.10;44.46
44079;BME280;29744;49.078;12.878;2023-09-30T13:55:42;97315.28;;;18.10;44.73
44079;BME280;29744;49.078;12.878;2023-09-30T14:00:46;97307.94;;;18.10;44.45
44079;BME280;29744;49.078;12.878;2023-09-30T14:05:47;97307.59;;;18.12;44.66
44079;BME280;29744;49.078;12.878;2023-09-30T14:10:48;97304.09;;;18.11;44.62
44079;BME280;29744;49.078;12.878;2023-09-30T14:15:49;97310.66;;;18.10;44.33
44079;BME280;29744;49.078;12.878;2023-09-30T14:20:49;97304.91;;;18.12;44.56
44079;BME280;29744;49.078;12.878;2023-09-30T14:25:53;97296.75;;;18.12;44.49
44079;BME280;29744;49.078;12.878;2023-09-30T14:30:54;97295.16;;;18.11;44.30
44079;BME280;29744;49.078;12.878;2023-09-30T14:35:54;97301.38;;;18.11;44.57
44079;BME280;29744;49.078;12.878;2023-09-30T14:40:56;97290.53;;;18.11;44.49
44079;BME280;29744;49.078;12.878;2023-09-30T14:45:56;97295.16;;;18.11;44.30
44079;BME280;29744;49.078;12.878;2023-09-30T14:50:57;97299.47;;;18.12;44.91
44079;BME280;29744;49.078;12.878;2023-09-30T14:55:57;97295.94;;;18.11;44.67
44079;BME280;29744;49.078;12.878;2023-09-30T15:00:58;97290.84;;;18.10;44.63
44079;BME280;29744;49.078;12.878;2023-09-30T15:05:58;97299.00;;;18.10;44.63
44079;BME280;29744;49.078;12.878;2023-09-30T15:10:59;97301.38;;;18.11;44.25
44079;BME280;29744;49.078;12.878;2023-09-30T15:16:00;97295.94;;;18.11;44.84
44079;BME280;29744;49.078;12.878;2023-09-30T15:21:00;97292.44;;;18.11;44.77
44079;BME280;29744;49.078;12.878;2023-09-30T15:26:02;97299.78;;;18.10;44.46
44079;BME280;29744;49.078;12.878;2023-09-30T15:31:03;97297.06;;;18.10;44.54
44079;BME280;29744;49.078;12.878;2023-09-30T15:36:15;97311.44;;;18.11;44.36
44079;BME280;29744;49.078;12.878;2023-09-30T15:41:23;97318.00;;;18.10;44.26
44079;BME280;29744;49.078;12.878;2023-09-30T15:46:24;97309.84;;;18.10;44.40
44079;BME280;29744;49.078;12.878;2023-09-30T15:51:24;97310.97;;;18.09;44.65
44079;BME280;29744;49.078;12.878;2023-09-30T15:56:25;97320.38;;;18.11;44.51
44079;BME280;29744;49.078;12.878;2023-09-30T16:01:26;97324.22;;;18.10;44.33
44079;BME280;29744;49.078;12.878;2023-09-30T16:06:26;97319.13;;;18.09;44.46
44079;BME280;29744;49.078;12.878;2023-09-30T16:11:27;97317.19;;;18.09;44.51
44079;BME280;29744;49.078;12.878;2023-09-30T16:16:27;97314.47;;;18.09;44.84
44079;BME280;29744;49.078;12.878;2023-09-30T16:21:28;97318.00;;;18.10;44.67
44079;BME280;29744;49.078;12.878;2023-09-30T16:26:28;97312.88;;;18.08;44.53
44079;BME280;29744;49.078;12.878;2023-09-30T16:31:28;97308.25;;;18.09;44.66
44079;BME280;29744;49.078;12.878;2023-09-30T16:36:29;97317.19;;;18.09;44.37
44079;BME280;29744;49.078;12.878;2023-09-30T16:41:29;97314.81;;;18.08;44.45
44079;BME280;29744;49.078;12.878;2023-09-30T16:46:29;97321.03;;;18.08;44.44
44079;BME280;29744;49.078;12.878;2023-09-30T16:51:30;97317.53;;;18.08;44.68
44079;BME280;29744;49.078;12.878;2023-09-30T16:56:30;97314.81;;;18.08;44.46
44079;BME280;29744;49.078;12.878;2023-09-30T17:01:30;97317.53;;;18.08;44.35
44079;BME280;29744;49.078;12.878;2023-09-30T17:06:31;97314.81;;;18.08;44.49
44079;BME280;29744;49.078;12.878;2023-09-30T17:11:31;97316.72;;;18.07;44.48
44079;BME280;29744;49.078;12.878;2023-09-30T17:16:32;97313.22;;;18.07;44.40
44079;BME280;29744;49.078;12.878;2023-09-30T17:21:32;97310.50;;;18.07;44.41
44079;BME280;29744;49.078;12.878;2023-09-30T17:26:32;97315.13;;;18.06;44.20
44079;BME280;29744;49.078;12.878;2023-09-30T17:31:33;97309.69;;;18.06;44.71
44079;BME280;29744;49.078;12.878;2023-09-30T17:36:33;97323.28;;;18.06;44.40
44079;BME280;29744;49.078;12.878;2023-09-30T17:41:33;97321.69;;;18.05;44.49
44079;BME280;29744;49.078;12.878;2023-09-30T17:46:33;97322.47;;;18.06;44.35
44079;BME280;29744;49.078;12.878;2023-09-30T17:51:34;97320.88;;;18.05;44.40
44079;BME280;29744;49.078;12.878;2023-09-30T17:56:34;97320.56;;;18.06;44.13
44079;BME280;29744;49.078;12.878;2023-09-30T18:01:34;97322.47;;;18.06;44.30
44079;BME280;29744;49.078;12.878;2023-09-30T18:06:36;97327.91;;;18.06;44.27
44079;BME280;29744;49.078;12.878;2023-09-30T18:11:37;97342.59;;;18.05;44.43
44079;BME280;29744;49.078;12.878;2023-09-30T18:16:38;97325.53;;;18.04;44.54
44079;BME280;29744;49.078;12.878;2023-09-30T18:21:39;97342.59;;;18.05;44.35
44079;BME280;29744;49.078;12.878;2023-09-30T18:26:40;97343.41;;;18.05;44.21
44079;BME280;29744;49.078;12.878;2023-09-30T18:31:41;97350.75;;;18.05;44.38
44079;BME280;29744;49.078;12.878;2023-09-30T18:36:44;97347.22;;;18.04;44.72
44079;BME280;29744;49.078;12.878;2023-09-30T18:41:44;97333.66;;;18.04;44.53
44079;BME280;29744;49.078;12.878;2023-09-30T18:46:45;97349.94;;;18.04;44.36
44079;BME280;29744;49.078;12.878;2023-09-30T18:51:45;97350.28;;;18.03;44.82
44079;BME280;29744;49.078;12.878;2023-09-30T18:56:46;97349.94;;;18.04;44.67
44079;BME280;29744;49.078;12.878;2023-09-30T19:01:46;97355.69;;;18.03;44.44
44079;BME280;29744;49.078;12.878;2023-09-30T19:06:47;97364.63;;;18.03;44.44
44079;BME280;29744;49.078;12.878;2023-09-30T19:11:48;97365.44;;;18.04;44.29
44079;BME280;29744;49.078;12.878;2023-09-30T19:16:48;97359.53;;;18.02;44.55
44079;BME280;29744;49.078;12.878;2023-09-30T19:21:48;97358.41;;;18.03;44.64
44079;BME280;29744;49.078;12.878;2023-09-30T19:26:49;97359.22;;;18.03;44.62
44079;BME280;29744;49.078;12.878;2023-09-30T19:31:49;97366.56;;;18.03;44.22
44079;BME280;29744;49.078;12.878;2023-09-30T19:36:50;97370.38;;;18.02;44.41
44079;BME280;29744;49.078;12.878;2023-09-30T19:41:50;97372.31;;;18.01;44.48
44079;BME280;29744;49.078;12.878;2023-09-30T19:46:50;97369.28;;;18.03;44.28
44079;BME280;29744;49.078;12.878;2023-09-30T19:51:50;97373.09;;;18.02;44.54
44079;BME280;29744;49.078;12.878;2023-09-30T19:56:51;97378.53;;;18.02;44.81
44079;BME280;29744;49.078;12.878;2023-09-30T20:01:51;97378.53;;;18.02;44.56
44079;BME280;29744;49.078;12.878;2023-09-30T20:06:52;97379.66;;;18.00;44.81
44079;BME280;29744;49.078;12.878;2023-09-30T20:11:54;97377.75;;;18.01;44.15
44079;BME280;29744;49.078;12.878;2023-09-30T20:16:58;97371.50;;;18.00;44.44
44079;BME280;29744;49.078;12.878;2023-09-30T20:21:58;97382.38;;;18.00;44.79
44079;BME280;29744;49.078;12.878;2023-09-30T20:27:00;97384.28;;;18.00;44.44
44079;BME280;29744;49.078;12.878;2023-09-30T20:32:01;97385.09;;;18.00;44.59
44079;BME280;29744;49.078;12.878;2023-09-30T20:37:02;97372.63;;;17.99;44.47
44079;BME280;29744;49.078;12.878;2023-09-30T20:42:03;97363.38;;;18.00;44.38
44079;BME280;29744;49.078;12.878;2023-09-30T20:47:03;97370.72;;;18.00;44.51
44079;BME280;29744;49.078;12.878;2023-09-30T20:52:05;97360.66;;;18.00;44.29
44079;BME280;29744;49.078;12.878;2023-09-30T20:57:06;97360.66;;;18.00;44.38
44079;BME280;29744;49.078;12.878;2023-09-30T21:02:06;97368.31;;;17.98;44.39
44079;BME280;29744;49.078;12.878;2023-09-30T21:07:09;97370.72;;;18.00;44.43
44079;BME280;29744;49.078;12.878;2023-09-30T21:12:10;97369.91;;;17.99;44.44
44079;BME280;29744;49.078;12.878;2023-09-30T21:17:13;97364.50;;;17.99;44.49
44079;BME280;29744;49.078;12.878;2023-09-30T21:22:14;97371.03;;;17.98;44.41
44079;BME280;29744;49.078;12.878;2023-09-30T21:27:15;97371.03;;;17.98;44.56
44079;BME280;29744;49.078;12.878;2023-09-30T21:32:15;97387.31;;;17.98;44.58
44079;BME280;29744;49.078;12.878;2023-09-30T21:37:15;97384.59;;;17.98;44.39
44079;BME280;29744;49.078;12.878;2023-09-30T21:42:16;97398.19;;;17.98;44.49
44079;BME280;29744;49.078;12.878;2023-09-30T21:47:16;97398.97;;;17.99;44.19
44079;BME280;29744;49.078;12.878;2023-09-30T21:52:17;97399.28;;;17.97;44.44
44079;BME280;29744;49.078;12.878;2023-09-30T21:57:17;97400.88;;;17.98;44.20
44079;BME280;29744;49.078;12.878;2023-09-30T22:02:19;97403.59;;;17.98;44.39
44079;BME280;29744;49.078;12.878;2023-09-30T22:07:19;97401.22;;;17.97;44.57
44079;BME280;29744;49.078;12.878;2023-09-30T22:12:22;97404.72;;;17.97;44.66
44079;BME280;29744;49.078;12.878;2023-09-30T22:17:22;97407.44;;;17.97;44.44
44079;BME280;29744;49.078;12.878;2023-09-30T22:22:23;97410.16;;;17.97;44.71
44079;BME280;29744;49.078;12.878;2023-09-30T22:27:23;97404.72;;;17.97;44.44
44079;BME280;29744;49.078;12.878;2023-09-30T22:32:24;97416.38;;;17.98;44.31
44079;BME280;29744;49.078;12.878;2023-09-30T22:37:24;97422.94;;;17.97;44.45
44079;BME280;29744;49.078;12.878;2023-09-30T22:42:25;97422.09;;;17.96;44.33
44079;BME280;29744;49.078;12.878;2023-09-30T22:47:25;97413.16;;;17.96;44.41
44079;BME280;29744;49.078;12.878;2023-09-30T22:52:26;97411.25;;;17.96;44.44
44079;BME280;29744;49.078;12.878;2023-09-30T22:57:26;97412.06;;;17.97;44.42
44079;BME280;29744;49.078;12.878;2023-09-30T23:02:27;97411.25;;;17.96;44.14
44079;BME280;29744;49.078;12.878;2023-09-30T23:07:29;97422.09;;;17.96;44.70
44079;BME280;29744;49.078;12.878;2023-09-30T23:12:29;97424.81;;;17.96;44.57
44079;BME280;29744;49.078;12.878;2023-09-30T23:17:30;97424.81;;;17.96;44.08
44079;BME280;29744;49.078;12.878;2023-09-30T23:22:30;97415.88;;;17.96;44.26
44079;BME280;29744;49.078;12.878;2023-09-30T23:27:31;97415.88;;;17.96;44.66
44079;BME280;29744;49.078;12.878;2023-09-30T23:32:31;97432.16;;;17.96;44.35
44079;BME280;29744;49.078;12.878;2023-09-30T23:37:31;97422.09;;;17.96;44.40
44079;BME280;29744;49.078;12.878;2023-09-30T23:42:32;97432.94;;;17.96;44.81
44079;BME280;29744;49.078;12.878;2023-09-30T23:47:33;97429.44;;;17.96;44.46
44079;BME280;29744;49.078;12.878;2023-09-30T23:52:36;97424.00;;;17.96;44.49
44079;BME280;29744;49.078;12.878;2023-09-30T23:57:37;97427.84;;;17.95;44.10
